createdAt,value
2018-11-27T00:00:37.799Z,44.90
2018-11-27T00:03:07.634Z,45.20
2018-11-27T00:05:37.027Z,41.80
2018-11-27T00:08:05.583Z,45.90
2018-11-27T00:10:35.824Z,46.70
2018-11-27T00:13:04.140Z,43.50
2018-11-27T00:15:32.374Z,44.77
2018-11-27T00:18:00.624Z,45.80
2018-11-27T00:20:28.902Z,47.73
2018-11-27T00:22:57.160Z,45.57
2018-11-27T00:25:25.483Z,41.80
2018-11-27T00:27:53.812Z,44.87
2018-11-27T00:30:22.272Z,43.10
2018-11-27T00:32:51.547Z,47.53
2018-11-27T00:35:20.485Z,44.37
2018-11-27T00:37:48.728Z,45.07
2018-11-27T00:40:19.707Z,43.43
2018-11-27T00:42:48.004Z,42.90
2018-11-27T00:45:17.199Z,43.83
2018-11-27T00:47:46.396Z,46.47
2018-11-27T00:50:15.531Z,43.77
2018-11-27T00:52:43.905Z,46.03
2018-11-27T00:55:14.847Z,49.37
2018-11-27T00:57:43.670Z,43.40
2018-11-27T01:00:14.822Z,44.83
2018-11-27T01:02:43.064Z,46.77
2018-11-27T01:05:12.363Z,43.80
2018-11-27T01:07:40.745Z,46.57
2018-11-27T01:10:12.923Z,44.87
2018-11-27T01:12:41.218Z,44.97
2018-11-27T01:15:10.711Z,51.27
2018-11-27T01:17:42.416Z,45.37
2018-11-27T01:20:15.027Z,46.90
2018-11-27T01:22:43.285Z,46.97
2018-11-27T01:25:11.888Z,48.43
2018-11-27T01:27:40.172Z,45.17
2018-11-27T01:30:12.525Z,46.27
2018-11-27T01:32:40.892Z,47.10
2018-11-27T01:35:10.536Z,48.37
2018-11-27T01:37:38.984Z,48.80
2018-11-27T01:40:10.948Z,49.30
2018-11-27T01:42:39.266Z,50.87
2018-11-27T01:45:09.288Z,47.17
2018-11-27T01:47:37.544Z,47.73
2018-11-27T01:50:08.272Z,45.93
2018-11-27T01:52:36.548Z,46.27
2018-11-27T01:55:05.055Z,46.50
2018-11-27T01:57:33.438Z,48.60
2018-11-27T02:00:01.691Z,52.70
2018-11-27T02:02:29.988Z,45.83
2018-11-27T02:04:58.318Z,47.80
2018-11-27T02:07:26.594Z,47.57
2018-11-27T02:09:54.931Z,48.77
2018-11-27T02:12:23.493Z,48.50
2018-11-27T02:14:51.759Z,50.13
2018-11-27T02:17:20.013Z,47.27
2018-11-27T02:19:48.388Z,51.23
2018-11-27T02:22:16.640Z,52.93
2018-11-27T02:24:44.932Z,45.37
2018-11-27T02:27:13.222Z,54.20
2018-11-27T02:29:41.483Z,47.93
2018-11-27T02:32:09.759Z,50.87
2018-11-27T02:34:38.040Z,53.90
2018-11-27T02:37:06.331Z,53.97
2018-11-27T02:39:34.649Z,54.57
2018-11-27T02:42:02.990Z,49.33
2018-11-27T02:44:31.911Z,48.87
2018-11-27T02:47:00.176Z,51.30
2018-11-27T02:49:28.640Z,45.80
2018-11-27T02:51:56.967Z,50.03
2018-11-27T02:54:25.254Z,53.87
2018-11-27T02:56:53.535Z,51.03
2018-11-27T02:59:21.860Z,51.70
2018-11-27T03:01:50.231Z,54.23
2018-11-27T03:04:18.521Z,52.63
2018-11-27T03:06:46.761Z,54.33
2018-11-27T03:09:15.062Z,52.00
2018-11-27T03:11:43.412Z,52.93
2018-11-27T03:14:11.678Z,55.33
2018-11-27T03:16:39.960Z,61.50
2018-11-27T03:19:08.253Z,59.80
2018-11-27T03:21:37.651Z,58.83
2018-11-27T03:24:05.995Z,53.67
2018-11-27T03:26:34.282Z,60.87
2018-11-27T03:29:02.597Z,58.90
2018-11-27T03:31:30.857Z,62.37
2018-11-27T03:33:59.224Z,60.50
2018-11-27T03:36:27.507Z,58.17
2018-11-27T03:38:55.799Z,62.50
2018-11-27T03:41:24.211Z,60.40
2018-11-27T03:43:52.498Z,58.40
2018-11-27T03:46:20.761Z,63.40
2018-11-27T03:48:49.222Z,66.07
2018-11-27T03:51:17.501Z,67.67
2018-11-27T03:53:45.799Z,64.10
2018-11-27T03:56:14.071Z,63.17
2018-11-27T03:58:42.346Z,68.20
2018-11-27T04:01:10.608Z,68.10
2018-11-27T04:03:39.409Z,64.07
2018-11-27T04:06:07.704Z,64.73
2018-11-27T04:08:36.070Z,69.73
2018-11-27T04:11:05.724Z,64.87
2018-11-27T04:13:34.058Z,69.23
2018-11-27T04:16:02.336Z,75.03
2018-11-27T04:18:30.620Z,69.20
2018-11-27T04:20:58.969Z,68.80
2018-11-27T04:23:27.235Z,62.47
2018-11-27T04:25:55.521Z,71.40
2018-11-27T04:28:23.888Z,62.17
2018-11-27T04:30:52.180Z,65.20
2018-11-27T04:33:20.468Z,67.73
2018-11-27T04:35:48.793Z,64.67
2018-11-27T04:38:17.122Z,61.70
2018-11-27T04:40:45.507Z,60.90
2018-11-27T04:43:13.804Z,66.90
2018-11-27T04:45:42.081Z,65.17
2018-11-27T04:48:10.444Z,65.77
2018-11-27T04:50:38.751Z,72.77
2018-11-27T04:53:07.115Z,56.40
2018-11-27T04:55:35.397Z,67.83
2018-11-27T04:58:04.775Z,66.17
2018-11-27T05:00:33.377Z,62.50
2018-11-27T05:03:01.665Z,61.47
2018-11-27T05:05:30.344Z,61.37
2018-11-27T05:07:58.616Z,59.30
2018-11-27T05:10:26.925Z,65.03
2018-11-27T05:12:55.183Z,59.53
2018-11-27T05:15:26.020Z,67.33
2018-11-27T05:17:56.202Z,62.73
2018-11-27T05:20:24.513Z,64.73
2018-11-27T05:22:52.815Z,55.30
2018-11-27T05:25:21.196Z,56.73
2018-11-27T05:27:54.375Z,59.47
2018-11-27T05:30:28.424Z,58.83
2018-11-27T05:32:55.899Z,62.40
2018-11-27T05:35:26.243Z,59.87
2018-11-27T05:37:54.576Z,63.17
2018-11-27T05:40:23.691Z,59.30
2018-11-27T05:42:55.100Z,58.47
2018-11-27T05:45:23.971Z,59.80
2018-11-27T05:47:52.260Z,59.90
2018-11-27T05:50:20.580Z,56.30
2018-11-27T05:52:48.928Z,55.53
2018-11-27T05:55:17.614Z,62.17
2018-11-27T05:57:47.096Z,55.57
2018-11-27T06:00:16.672Z,63.10
2018-11-27T06:02:46.771Z,50.10
2018-11-27T06:05:16.099Z,52.30
2018-11-27T06:07:44.463Z,53.10
2018-11-27T06:10:18.760Z,55.20
2018-11-27T06:12:47.128Z,51.93
2018-11-27T06:15:18.384Z,53.37
2018-11-27T06:17:48.922Z,60.10
2018-11-27T06:20:18.191Z,58.53
2018-11-27T06:22:46.519Z,56.07
2018-11-27T06:25:24.531Z,57.27
2018-11-27T06:27:55.040Z,48.20
2018-11-27T06:30:24.292Z,50.53
2018-11-27T06:32:54.185Z,51.67
2018-11-27T06:35:28.201Z,47.57
2018-11-27T06:37:57.046Z,53.35
2018-11-27T06:40:26.520Z,47.67
2018-11-27T06:42:54.827Z,50.43
2018-11-27T06:45:24.201Z,50.07
2018-11-27T06:47:52.312Z,52.70
2018-11-27T06:50:21.339Z,47.47
2018-11-27T06:52:49.663Z,49.63
2018-11-27T06:55:19.810Z,52.40
2018-11-27T06:57:48.187Z,56.60
2018-11-27T07:00:20.187Z,45.43
2018-11-27T07:02:48.501Z,46.50
2018-11-27T07:05:16.763Z,51.07
2018-11-27T07:07:45.031Z,49.57
2018-11-27T07:10:19.703Z,48.73
2018-11-27T07:12:48.802Z,48.40
2018-11-27T07:15:18.419Z,45.57
2018-11-27T07:17:47.009Z,49.73
2018-11-27T07:20:15.283Z,53.60
2018-11-27T07:22:43.577Z,59.67
2018-11-27T07:25:12.964Z,51.37
2018-11-27T07:27:45.575Z,50.57
2018-11-27T07:30:22.629Z,49.20
2018-11-27T07:32:51.015Z,49.67
2018-11-27T07:35:19.588Z,55.07
2018-11-27T07:37:48.119Z,46.10
2018-11-27T07:40:20.255Z,50.33
2018-11-27T07:42:49.797Z,55.57
2018-11-27T07:45:21.037Z,56.40
2018-11-27T07:47:49.351Z,51.50
2018-11-27T07:50:17.803Z,53.00
2018-11-27T07:52:46.176Z,47.43
2018-11-27T07:55:15.508Z,53.43
2018-11-27T07:57:43.916Z,51.37
2018-11-27T08:00:14.947Z,53.73
2018-11-27T08:02:44.134Z,49.40
2018-11-27T08:05:13.680Z,47.67
2018-11-27T08:07:43.219Z,44.47
2018-11-27T08:10:14.874Z,51.33
2018-11-27T08:12:43.156Z,51.00
2018-11-27T08:15:16.145Z,51.67
2018-11-27T08:17:44.523Z,49.50
2018-11-27T08:20:44.540Z,45.67
2018-11-27T08:23:12.948Z,49.33
2018-11-27T08:25:41.236Z,52.03
2018-11-27T08:28:09.593Z,45.37
2018-11-27T08:30:37.932Z,55.17
2018-11-27T08:33:06.788Z,43.33
2018-11-27T08:35:35.040Z,47.57
2018-11-27T08:38:03.398Z,43.50
2018-11-27T08:40:33.536Z,47.47
2018-11-27T08:43:01.811Z,44.00
2018-11-27T08:45:30.093Z,44.27
2018-11-27T08:47:58.456Z,50.57
2018-11-27T08:50:27.419Z,51.10
2018-11-27T08:53:03.354Z,54.77
2018-11-27T08:55:47.307Z,48.83
2018-11-27T08:58:19.979Z,47.23
2018-11-27T09:00:48.424Z,50.13
2018-11-27T09:03:16.841Z,46.47
2018-11-27T09:05:45.204Z,42.13
2018-11-27T09:08:13.878Z,44.90
2018-11-27T09:10:42.146Z,47.20
2018-11-27T09:13:10.480Z,47.67
2018-11-27T09:15:38.741Z,48.23
2018-11-27T09:18:21.332Z,46.47
2018-11-27T09:20:49.717Z,42.97
2018-11-27T09:23:17.995Z,44.97
2018-11-27T09:25:46.297Z,43.27
2018-11-27T09:28:14.756Z,48.83
2018-11-27T09:30:55.012Z,45.80
2018-11-27T09:33:23.316Z,43.20
2018-11-27T09:35:51.753Z,41.20
2018-11-27T09:38:20.263Z,39.47
2018-11-27T09:40:48.616Z,44.47
2018-11-27T09:43:23.983Z,44.27
2018-11-27T09:45:52.336Z,41.37
2018-11-27T09:48:20.632Z,41.00
2018-11-27T09:50:48.926Z,40.33
2018-11-27T09:53:17.322Z,43.40
2018-11-27T09:55:45.592Z,44.10
2018-11-27T09:58:13.855Z,39.73
2018-11-27T10:00:42.169Z,39.13
2018-11-27T10:03:14.711Z,41.30
2018-11-27T10:05:42.995Z,41.33
2018-11-27T10:08:11.261Z,44.83
2018-11-27T10:10:39.555Z,45.33
2018-11-27T10:13:08.060Z,38.47
2018-11-27T10:15:37.644Z,41.73
2018-11-27T10:18:06.120Z,37.10
2018-11-27T10:20:37.407Z,38.17
2018-11-27T10:23:08.443Z,38.40
2018-11-27T10:28:32.039Z,45.07
2018-11-27T10:30:57.904Z,38.03
2018-11-27T10:33:26.231Z,44.57
2018-11-27T10:35:54.513Z,37.60
2018-11-27T10:38:22.842Z,37.77
2018-11-27T10:40:51.635Z,43.50
2018-11-27T10:43:20.230Z,38.87
2018-11-27T10:45:48.479Z,35.63
2018-11-27T10:48:16.744Z,38.30
2018-11-27T10:50:45.012Z,35.47
2018-11-27T10:53:13.536Z,40.87
2018-11-27T10:55:41.813Z,37.33
2018-11-27T10:58:10.318Z,41.90
2018-11-27T11:00:45.038Z,41.97
2018-11-27T11:03:43.432Z,38.23
2018-11-27T11:06:15.636Z,38.40
2018-11-27T11:08:43.905Z,35.73
2018-11-27T11:11:12.250Z,36.83
2018-11-27T11:13:40.513Z,39.77
2018-11-27T11:16:08.824Z,39.77
2018-11-27T11:18:37.130Z,38.37
2018-11-27T11:21:05.614Z,36.53
2018-11-27T11:23:33.892Z,34.40
2018-11-27T11:26:02.224Z,35.53
2018-11-27T11:28:31.339Z,31.47
2018-11-27T11:30:59.821Z,38.83
2018-11-27T11:33:28.209Z,35.47
2018-11-27T11:35:56.485Z,34.60
2018-11-27T11:38:24.762Z,36.73
2018-11-27T11:40:53.214Z,33.43
2018-11-27T11:43:21.504Z,35.50
2018-11-27T11:45:55.764Z,31.53
2018-11-27T11:48:24.112Z,30.53
2018-11-27T11:50:52.393Z,33.10
2018-11-27T11:53:21.367Z,29.73
2018-11-27T11:55:49.753Z,31.60
2018-11-27T11:58:18.028Z,33.43
2018-11-27T12:00:48.947Z,32.63
2018-11-27T12:03:17.440Z,30.97
2018-11-27T12:05:45.788Z,33.80
2018-11-27T12:08:15.181Z,31.23
2018-11-27T12:10:43.443Z,32.33
2018-11-27T12:13:12.043Z,32.13
2018-11-27T12:15:41.251Z,36.43
2018-11-27T12:18:09.966Z,30.07
2018-11-27T12:20:39.050Z,32.57
2018-11-27T12:23:09.717Z,32.10
2018-11-27T12:25:37.448Z,31.30
2018-11-27T12:28:06.728Z,34.57
2018-11-27T12:30:35.105Z,29.53
2018-11-27T12:33:03.481Z,35.17
2018-11-27T12:35:31.859Z,30.67
2018-11-27T12:38:00.218Z,31.30
2018-11-27T12:40:29.276Z,32.33
2018-11-27T12:42:58.028Z,32.60
2018-11-27T12:45:28.414Z,32.77
2018-11-27T12:47:57.657Z,27.77
2018-11-27T12:50:27.191Z,31.97
2018-11-27T12:52:55.636Z,33.80
2018-11-27T12:55:24.529Z,30.73
2018-11-27T12:57:52.931Z,32.00
2018-11-27T13:00:22.667Z,30.90
2018-11-27T13:02:51.232Z,31.60
2018-11-27T13:05:21.720Z,32.40
2018-11-27T13:07:50.701Z,30.10
2018-11-27T13:10:19.029Z,31.10
2018-11-27T13:12:47.531Z,32.17
2018-11-27T13:15:17.916Z,29.63
2018-11-27T13:17:46.794Z,29.63
2018-11-27T13:20:15.936Z,30.97
2018-11-27T13:22:44.322Z,30.47
2018-11-27T13:25:14.638Z,31.10
2018-11-27T13:27:42.919Z,29.73
2018-11-27T13:30:22.249Z,35.97
2018-11-27T13:32:56.544Z,31.87
2018-11-27T13:35:24.848Z,31.87
2018-11-27T13:37:53.349Z,32.73
2018-11-27T13:40:21.695Z,30.13
2018-11-27T13:42:50.996Z,27.40
2018-11-27T13:45:19.283Z,29.50
2018-11-27T13:47:47.683Z,28.77
2018-11-27T13:50:16.901Z,28.73
2018-11-27T13:52:45.211Z,26.07
2018-11-27T13:55:17.551Z,29.43
2018-11-27T13:57:45.820Z,27.10
2018-11-27T14:00:14.997Z,29.10
2018-11-27T14:02:44.912Z,30.20
2018-11-27T14:05:14.763Z,29.57
2018-11-27T14:07:43.174Z,29.53
2018-11-27T14:10:11.920Z,28.93
2018-11-27T14:12:40.260Z,31.83
2018-11-27T14:15:24.907Z,29.00
2018-11-27T14:17:54.359Z,30.60
2018-11-27T14:20:22.644Z,30.87
2018-11-27T14:22:51.357Z,28.30
2018-11-27T14:25:19.707Z,28.60
2018-11-27T14:27:49.784Z,29.90
2018-11-27T14:30:19.178Z,29.93
2018-11-27T14:32:47.696Z,27.97
2018-11-27T14:35:16.544Z,32.87
2018-11-27T14:37:45.496Z,30.70
2018-11-27T14:40:16.628Z,30.97
2018-11-27T14:42:45.037Z,26.73
2018-11-27T14:45:14.601Z,27.53
2018-11-27T14:47:43.225Z,28.50
2018-11-27T14:50:12.295Z,31.33
2018-11-27T14:52:40.712Z,31.13
2018-11-27T14:55:18.067Z,27.27
2018-11-27T14:57:46.458Z,29.07
2018-11-27T15:00:16.705Z,26.63
2018-11-27T15:02:45.032Z,27.03
2018-11-27T15:05:14.716Z,31.07
2018-11-27T15:07:43.026Z,27.00
2018-11-27T15:10:12.137Z,27.77
2018-11-27T15:12:40.464Z,28.13
2018-11-27T15:18:01.931Z,29.23
2018-11-27T15:20:30.184Z,28.67
2018-11-27T15:22:58.536Z,29.63
2018-11-27T15:25:26.832Z,25.43
2018-11-27T15:27:55.152Z,25.17
2018-11-27T15:30:26.408Z,24.47
2018-11-27T15:32:56.054Z,24.00
2018-11-27T15:35:24.447Z,28.13
2018-11-27T15:37:55.919Z,30.30
2018-11-27T15:40:26.175Z,24.63
2018-11-27T15:42:54.491Z,23.03
2018-11-27T15:45:23.784Z,26.17
2018-11-27T15:47:52.064Z,28.20
2018-11-27T15:50:20.415Z,30.50
2018-11-27T15:52:48.695Z,34.67
2018-11-27T15:55:25.712Z,27.97
2018-11-27T15:57:55.339Z,29.97
2018-11-27T16:00:23.614Z,30.10
2018-11-27T16:02:51.973Z,29.93
2018-11-27T16:05:20.271Z,30.30
2018-11-27T16:07:48.651Z,27.77
2018-11-27T16:10:17.968Z,28.70
2018-11-27T16:12:46.317Z,26.73
2018-11-27T16:15:15.626Z,27.03
2018-11-27T16:17:43.984Z,25.47
2018-11-27T16:20:16.303Z,28.30
2018-11-27T16:22:45.579Z,27.73
2018-11-27T16:25:15.812Z,30.30
2018-11-27T16:27:44.101Z,32.80
2018-11-27T16:30:25.759Z,29.03
2018-11-27T16:32:54.113Z,26.87
2018-11-27T16:35:22.467Z,27.00
2018-11-27T16:37:52.820Z,24.53
2018-11-27T16:40:24.211Z,28.20
2018-11-27T16:42:52.480Z,30.27
2018-11-27T16:45:21.889Z,31.50
2018-11-27T16:47:50.482Z,29.00
2018-11-27T16:50:19.119Z,30.70
2018-11-27T16:52:47.748Z,23.67
2018-11-27T16:55:17.970Z,28.27
2018-11-27T16:58:02.865Z,22.63
2018-11-27T17:00:32.582Z,27.37
2018-11-27T17:03:01.815Z,27.50
2018-11-27T17:05:31.395Z,28.80
2018-11-27T17:07:59.669Z,26.27
2018-11-27T17:10:27.974Z,29.90
2018-11-27T17:12:57.160Z,27.87
2018-11-27T17:15:26.487Z,29.07
2018-11-27T17:17:54.799Z,27.80
2018-11-27T17:20:31.035Z,26.53
2018-11-27T17:23:01.255Z,29.07
2018-11-27T17:25:29.633Z,29.23
2018-11-27T17:27:59.694Z,27.00
2018-11-27T17:30:36.419Z,27.23
2018-11-27T17:33:07.924Z,26.63
2018-11-27T17:35:36.268Z,29.33
2018-11-27T17:38:04.639Z,32.45
2018-11-27T17:40:33.327Z,29.47
2018-11-27T17:43:01.713Z,27.43
2018-11-27T17:45:30.076Z,27.80
2018-11-27T17:47:58.405Z,27.10
2018-11-27T17:50:27.806Z,29.70
2018-11-27T17:52:56.113Z,29.37
2018-11-27T17:55:24.478Z,27.60
2018-11-27T17:57:52.832Z,28.43
2018-11-27T18:00:29.769Z,30.30
2018-11-27T18:03:03.395Z,28.87
2018-11-27T18:05:31.720Z,31.47
2018-11-27T18:08:00.733Z,27.63
2018-11-27T18:10:29.510Z,30.60
2018-11-27T18:12:58.162Z,26.97
2018-11-27T18:15:26.669Z,29.90
2018-11-27T18:17:54.970Z,29.10
2018-11-27T18:20:23.610Z,29.43
2018-11-27T18:22:52.571Z,27.63
2018-11-27T18:25:21.069Z,27.30
2018-11-27T18:27:50.418Z,35.30
2018-11-27T18:30:20.025Z,31.17
2018-11-27T18:32:48.696Z,30.30
2018-11-27T18:35:25.065Z,30.97
2018-11-27T18:37:53.533Z,28.33
2018-11-27T18:40:22.179Z,35.50
2018-11-27T18:42:52.322Z,31.40
2018-11-27T18:45:24.664Z,38.15
2018-11-27T18:47:53.305Z,32.03
2018-11-27T18:50:22.683Z,35.67
2018-11-27T18:52:53.644Z,30.10
2018-11-27T18:55:22.983Z,29.87
2018-11-27T18:57:51.368Z,29.60
2018-11-27T19:00:23.831Z,53.53
2018-11-27T19:02:52.326Z,47.37
2018-11-27T19:05:20.722Z,54.53
2018-11-27T19:07:50.195Z,52.80
2018-11-27T19:10:21.476Z,55.40
2018-11-27T19:12:50.150Z,50.53
2018-11-27T19:15:41.548Z,54.90
2018-11-27T19:18:20.063Z,43.63
2018-11-27T19:20:48.557Z,41.97
2018-11-27T19:23:17.890Z,35.83
2018-11-27T19:25:47.423Z,33.80
2018-11-27T19:28:16.782Z,33.33
2018-11-27T19:30:45.514Z,31.73
2018-11-27T19:33:13.859Z,29.37
2018-11-27T19:35:42.459Z,31.57
2018-11-27T19:38:13.127Z,30.23
2018-11-27T19:40:41.429Z,28.93
2018-11-27T19:43:09.765Z,32.40
2018-11-27T19:45:43.013Z,33.17
2018-11-27T19:48:11.864Z,38.20
2018-11-27T19:50:41.219Z,36.57
2018-11-27T19:53:12.256Z,34.87
2018-11-27T19:55:39.544Z,36.20
2018-11-27T19:58:08.548Z,35.63
2018-11-27T20:00:39.051Z,35.77
2018-11-27T20:03:08.800Z,36.63
2018-11-27T20:05:39.701Z,28.90
2018-11-27T20:08:11.905Z,35.77
2018-11-27T20:10:40.256Z,32.97
2018-11-27T20:13:08.657Z,33.03
2018-11-27T20:15:37.099Z,32.77
2018-11-27T20:18:05.832Z,33.13
2018-11-27T20:20:34.249Z,34.53
2018-11-27T20:23:02.589Z,32.63
2018-11-27T20:25:30.876Z,31.37
2018-11-27T20:27:59.180Z,31.83
2018-11-27T20:30:28.469Z,31.07
2018-11-27T20:32:58.891Z,32.53
2018-11-27T20:35:27.736Z,34.73
2018-11-27T20:37:56.480Z,35.80
2018-11-27T20:40:25.237Z,36.47
2018-11-27T20:42:53.720Z,32.77
2018-11-27T20:45:23.227Z,36.00
2018-11-27T20:47:54.678Z,36.33
2018-11-27T20:50:23.273Z,37.30
2018-11-27T20:52:54.790Z,32.90
2018-11-27T20:55:23.317Z,32.43
2018-11-27T20:57:57.012Z,32.57
2018-11-27T21:00:29.177Z,45.47
2018-11-27T21:03:00.634Z,42.07
2018-11-27T21:05:31.108Z,47.07
2018-11-27T21:07:59.858Z,45.00
2018-11-27T21:10:28.963Z,37.17
2018-11-27T21:12:57.428Z,36.00
2018-11-27T21:15:25.899Z,41.63
2018-11-27T21:17:54.348Z,40.30
2018-11-27T21:20:22.770Z,37.87
2018-11-27T21:22:51.089Z,33.20
2018-11-27T21:25:20.445Z,40.07
2018-11-27T21:27:54.341Z,36.63
2018-11-27T21:30:22.773Z,31.73
2018-11-27T21:32:51.283Z,32.03
2018-11-27T21:35:20.674Z,34.30
2018-11-27T21:37:51.500Z,38.27
2018-11-27T21:40:19.883Z,37.93
2018-11-27T21:42:48.356Z,36.40
2018-11-27T21:45:19.587Z,35.27
2018-11-27T21:47:48.439Z,35.80
2018-11-27T21:50:27.520Z,31.23
2018-11-27T21:52:55.921Z,39.43
2018-11-27T21:55:24.272Z,33.43
2018-11-27T21:57:54.122Z,33.50
2018-11-27T22:00:23.593Z,33.73
2018-11-27T22:02:51.987Z,34.90
2018-11-27T22:05:20.465Z,32.80
2018-11-27T22:07:48.796Z,34.10
2018-11-27T22:10:19.389Z,30.73
2018-11-27T22:12:48.980Z,31.80
2018-11-27T22:15:24.553Z,38.53
2018-11-27T22:17:52.876Z,32.23
2018-11-27T22:20:21.721Z,29.03
2018-11-27T22:22:50.561Z,30.53
2018-11-27T22:25:18.921Z,33.77
2018-11-27T22:27:47.231Z,29.80
2018-11-27T22:30:16.936Z,32.73
2018-11-27T22:32:49.296Z,38.03
2018-11-27T22:35:17.572Z,33.77
2018-11-27T22:37:45.856Z,34.23
2018-11-27T22:40:16.080Z,29.47
2018-11-27T22:42:44.855Z,33.70
2018-11-27T22:45:17.468Z,36.90
2018-11-27T22:47:45.731Z,34.40
2018-11-27T22:50:15.793Z,35.20
2018-11-27T22:52:44.071Z,34.87
2018-11-27T22:55:13.311Z,35.20
2018-11-27T22:57:41.624Z,37.00
2018-11-27T23:00:19.991Z,30.87
2018-11-27T23:02:48.347Z,35.33
2018-11-27T23:05:17.507Z,31.43
2018-11-27T23:07:45.868Z,37.37
2018-11-27T23:10:14.587Z,35.03
2018-11-27T23:12:42.940Z,34.57
2018-11-27T23:15:12.448Z,31.90
2018-11-27T23:17:40.720Z,34.47
2018-11-27T23:20:11.408Z,38.90
2018-11-27T23:22:39.739Z,39.90
2018-11-27T23:25:09.507Z,38.13
2018-11-27T23:27:37.826Z,31.00
2018-11-27T23:30:09.064Z,34.87
2018-11-27T23:32:37.325Z,39.43
2018-11-27T23:35:06.074Z,32.93
2018-11-27T23:37:34.373Z,30.83
2018-11-27T23:40:02.702Z,36.47
2018-11-27T23:42:30.971Z,38.00
2018-11-27T23:44:59.392Z,38.83
2018-11-27T23:47:27.665Z,34.73
2018-11-27T23:49:56.078Z,37.33
2018-11-27T23:52:24.415Z,37.60
2018-11-27T23:54:53.232Z,36.33
2018-11-27T23:57:21.535Z,42.10
2018-11-27T23:59:50.077Z,41.17
